Ben Arnold, Texas
Current Conditions -  °F | °C
As of 5:35 PM on Saturday 20 Dec 2014 (Local Time) from KT35 Reporting Station
Overcast Overcast  
Wind Chill: 11°   Ceiling: 2800
Heat Index: 11°   Visibility: 7mi
Dew Point:   Wind: 5mph
Humidity: 89%   Direction: 10°N
Pressure: 30.16"   Gusts: NA
Location:  30.9882°N, 97.103°W
Report Text: KT35 202335Z AUTO 01004KT 7SM SCT014 OVC028 11/09 A3016 RMK AO2 T01050088
Loading
Personal Weather Stations






























Interactive Weather Map New forecast layout! Learn more

10-Day Weather Forecast

Advertisements
Track Severe Weather on mobile